createdAt,value
2022-09-23T00:00:48.871Z,8.72
2022-09-23T00:03:16.191Z,8.76
2022-09-23T00:05:43.024Z,8.76
2022-09-23T00:08:11.241Z,8.75
2022-09-23T00:11:27.712Z,8.72
2022-09-23T00:13:58.682Z,8.66
2022-09-23T00:16:33.829Z,8.78
2022-09-23T00:19:01.606Z,8.71
2022-09-23T00:21:28.111Z,8.76
2022-09-23T00:23:54.546Z,8.84
2022-09-23T00:26:21.595Z,8.76
2022-09-23T00:28:48.975Z,8.76
2022-09-23T00:31:20.980Z,8.79
2022-09-23T00:33:47.663Z,8.74
2022-09-23T00:36:18.002Z,8.78
2022-09-23T00:38:44.394Z,8.77
2022-09-23T00:41:11.785Z,8.75
2022-09-23T00:43:51.573Z,8.76
2022-09-23T00:46:39.163Z,8.76
2022-09-23T00:49:08.980Z,8.73
2022-09-23T00:51:38.610Z,8.62
2022-09-23T00:54:06.334Z,8.69
2022-09-23T00:56:33.251Z,8.65
2022-09-23T00:59:00.357Z,8.60
2022-09-23T01:01:26.795Z,8.58
2022-09-23T01:03:54.377Z,8.53
2022-09-23T01:06:20.852Z,8.52
2022-09-23T01:08:47.765Z,8.49
2022-09-23T01:11:35.981Z,8.49
2022-09-23T01:14:32.572Z,8.54
2022-09-23T01:17:07.384Z,8.48
2022-09-23T01:19:36.865Z,8.47
2022-09-23T01:22:11.814Z,8.51
2022-09-23T01:25:10.706Z,8.51
2022-09-23T01:27:51.298Z,8.46
2022-09-23T01:30:47.523Z,8.42
2022-09-23T01:33:22.214Z,8.41
2022-09-23T01:36:09.501Z,8.30
2022-09-23T01:38:40.743Z,8.29
2022-09-23T01:41:19.387Z,8.29
2022-09-23T01:44:02.227Z,8.31
2022-09-23T01:46:34.036Z,8.28
2022-09-23T01:49:19.511Z,8.27
2022-09-23T01:51:48.291Z,8.19
2022-09-23T01:54:25.104Z,8.19
2022-09-23T01:56:58.953Z,8.17
2022-09-23T01:59:30.248Z,8.20
2022-09-23T02:01:59.107Z,8.21
2022-09-23T02:04:32.375Z,8.23
2022-09-23T02:07:02.036Z,8.23
2022-09-23T02:09:31.943Z,8.20
2022-09-23T02:12:00.691Z,8.22
2022-09-23T02:14:58.590Z,8.16
2022-09-23T02:17:40.423Z,8.14
2022-09-23T02:20:07.341Z,8.08
2022-09-23T02:22:41.316Z,8.05
2022-09-23T02:25:08.803Z,8.00
2022-09-23T02:27:50.748Z,7.95
2022-09-23T02:30:21.330Z,7.92
2022-09-23T02:32:53.729Z,7.86
2022-09-23T02:35:24.426Z,7.80
2022-09-23T02:38:00.845Z,7.79
2022-09-23T02:40:39.110Z,7.75
2022-09-23T02:43:22.215Z,7.71
2022-09-23T02:45:48.654Z,7.71
2022-09-23T02:48:22.786Z,7.67
2022-09-23T02:50:49.260Z,7.67
2022-09-23T02:53:16.137Z,7.66
2022-09-23T02:55:42.843Z,7.68
2022-09-23T02:58:09.378Z,7.70
2022-09-23T03:01:02.680Z,7.59
2022-09-23T03:03:53.749Z,7.58
2022-09-23T03:06:46.761Z,7.58
2022-09-23T03:09:18.870Z,7.60
2022-09-23T03:11:49.157Z,7.62
2022-09-23T03:14:21.942Z,7.61
2022-09-23T03:17:21.956Z,7.57
2022-09-23T03:20:03.256Z,7.52
2022-09-23T03:22:42.760Z,7.49
2022-09-23T03:25:12.203Z,7.51
2022-09-23T03:27:39.012Z,7.52
2022-09-23T03:30:06.529Z,7.47
2022-09-23T03:32:32.921Z,7.49
2022-09-23T03:35:00.622Z,7.44
2022-09-23T03:37:41.769Z,7.38
2022-09-23T03:40:33.495Z,7.32
2022-09-23T03:43:01.318Z,7.26
2022-09-23T03:45:32.119Z,7.24
2022-09-23T03:47:58.536Z,7.28
2022-09-23T03:50:24.939Z,7.29
2022-09-23T03:52:51.330Z,7.32
2022-09-23T03:55:18.565Z,7.31
2022-09-23T03:57:45.278Z,7.27
2022-09-23T04:00:12.343Z,7.28
2022-09-23T04:02:39.108Z,7.27
2022-09-23T04:05:06.397Z,7.25
2022-09-23T04:07:32.802Z,7.23
2022-09-23T04:09:59.197Z,7.23
2022-09-23T04:12:25.570Z,7.19
2022-09-23T04:14:51.953Z,7.20
2022-09-23T04:17:18.340Z,7.17
2022-09-23T04:19:45.112Z,7.16
2022-09-23T04:22:11.506Z,7.13
2022-09-23T04:24:37.952Z,7.12
2022-09-23T04:27:04.499Z,7.07
2022-09-23T04:29:30.890Z,7.05
2022-09-23T04:31:57.774Z,7.00
2022-09-23T04:34:24.311Z,6.96
2022-09-23T04:36:50.843Z,6.90
2022-09-23T04:39:17.311Z,6.87
2022-09-23T04:41:44.251Z,6.84
2022-09-23T04:44:13.976Z,6.80
2022-09-23T04:46:46.645Z,6.76
2022-09-23T04:49:14.031Z,6.74
2022-09-23T04:51:43.694Z,6.73
2022-09-23T04:54:11.773Z,6.76
2022-09-23T04:56:38.223Z,6.80
2022-09-23T04:59:04.622Z,6.80
2022-09-23T05:01:32.060Z,6.81
2022-09-23T05:04:02.315Z,6.83
2022-09-23T05:06:29.598Z,6.88
2022-09-23T05:08:56.877Z,6.92
2022-09-23T05:11:24.116Z,6.95
2022-09-23T05:13:51.878Z,6.96
2022-09-23T05:16:18.726Z,6.99
2022-09-23T05:18:45.533Z,7.02
2022-09-23T05:21:13.235Z,7.03
2022-09-23T05:23:40.562Z,6.98
2022-09-23T05:26:08.680Z,7.00
2022-09-23T05:28:35.181Z,7.01
2022-09-23T05:31:20.616Z,7.06
2022-09-23T05:33:54.613Z,7.13
2022-09-23T05:36:21.602Z,7.18
2022-09-23T05:38:49.790Z,7.25
2022-09-23T05:41:16.371Z,7.28
2022-09-23T05:43:42.835Z,7.31
2022-09-23T05:46:28.694Z,7.32
2022-09-23T05:48:59.896Z,7.36
2022-09-23T05:51:30.901Z,7.37
2022-09-23T05:54:02.724Z,7.40
2022-09-23T05:56:29.258Z,7.42
2022-09-23T05:58:57.454Z,7.46
2022-09-23T06:01:28.381Z,7.54
2022-09-23T06:03:55.859Z,7.58
2022-09-23T06:06:28.860Z,7.65
2022-09-23T06:08:55.340Z,7.69
2022-09-23T06:11:21.743Z,7.78
2022-09-23T06:13:49.263Z,7.87
2022-09-23T06:16:15.864Z,7.93
2022-09-23T06:18:43.525Z,8.02
2022-09-23T06:21:14.645Z,8.09
2022-09-23T06:23:42.154Z,8.14
2022-09-23T06:26:10.156Z,8.23
2022-09-23T06:28:37.487Z,8.30
2022-09-23T06:31:07.615Z,8.39
2022-09-23T06:33:37.567Z,8.46
2022-09-23T06:36:05.389Z,8.52
2022-09-23T06:38:34.022Z,8.61
2022-09-23T06:41:00.910Z,8.68
2022-09-23T06:43:27.295Z,8.74
2022-09-23T06:45:57.128Z,8.82
2022-09-23T06:48:26.975Z,8.90
2022-09-23T06:50:53.819Z,9.00
2022-09-23T06:53:23.639Z,9.08
2022-09-23T06:55:59.854Z,9.21
2022-09-23T06:58:26.836Z,9.30
2022-09-23T07:00:54.036Z,9.39
2022-09-23T07:03:22.039Z,9.50
2022-09-23T07:05:48.448Z,9.60
2022-09-23T07:08:14.830Z,9.71
2022-09-23T07:10:41.205Z,9.81
2022-09-23T07:13:07.595Z,9.92
2022-09-23T07:15:34.023Z,10.06
2022-09-23T07:18:00.484Z,10.35
2022-09-23T07:20:26.854Z,10.50
2022-09-23T07:22:53.233Z,10.62
2022-09-23T07:25:19.901Z,10.84
2022-09-23T07:27:47.338Z,10.90
2022-09-23T07:30:23.503Z,10.87
2022-09-23T07:32:52.091Z,10.99
2022-09-23T07:35:18.951Z,11.22
2022-09-23T07:37:46.050Z,11.30
2022-09-23T07:40:12.638Z,11.37
2022-09-23T07:42:40.799Z,11.45
2022-09-23T07:45:08.972Z,11.42
2022-09-23T07:47:35.695Z,11.37
2022-09-23T07:50:02.152Z,11.32
2022-09-23T07:52:28.529Z,11.35
2022-09-23T07:54:54.893Z,11.45
2022-09-23T07:57:21.324Z,11.54
2022-09-23T07:59:47.711Z,11.65
2022-09-23T08:02:16.311Z,11.66
2022-09-23T08:04:42.780Z,11.68
2022-09-23T08:07:09.597Z,11.72
2022-09-23T08:09:41.255Z,11.67
2022-09-23T08:12:12.728Z,11.86
2022-09-23T08:14:42.119Z,11.99
2022-09-23T08:17:08.554Z,12.08
2022-09-23T08:19:35.093Z,12.16
2022-09-23T08:22:04.233Z,12.26
2022-09-23T08:24:33.690Z,12.37
2022-09-23T08:27:00.141Z,12.49
2022-09-23T08:29:26.703Z,12.52
2022-09-23T08:31:53.281Z,12.60
2022-09-23T08:34:20.641Z,12.67
2022-09-23T08:36:47.175Z,12.70
2022-09-23T08:39:15.315Z,12.74
2022-09-23T08:41:58.403Z,12.77
2022-09-23T08:44:26.652Z,12.79
2022-09-23T08:47:04.706Z,12.82
2022-09-23T08:49:33.362Z,12.80
2022-09-23T08:52:00.066Z,12.99
2022-09-23T08:54:27.667Z,13.13
2022-09-23T08:56:56.075Z,13.31
2022-09-23T08:59:51.895Z,13.43
2022-09-23T09:02:19.323Z,13.49
2022-09-23T09:04:47.619Z,13.60
2022-09-23T09:07:36.175Z,13.71
2022-09-23T09:10:06.572Z,13.74
2022-09-23T09:12:44.382Z,13.79
2022-09-23T09:15:13.085Z,13.88
2022-09-23T09:18:04.046Z,13.92
2022-09-23T09:21:00.509Z,13.98
2022-09-23T09:23:43.744Z,14.14
2022-09-23T09:26:39.632Z,14.29
2022-09-23T09:29:33.789Z,14.41
2022-09-23T09:31:57.738Z,14.49
2022-09-23T09:34:24.145Z,14.58
2022-09-23T09:37:12.879Z,14.66
2022-09-23T09:39:39.413Z,14.70
2022-09-23T09:42:06.504Z,14.79
2022-09-23T09:44:42.366Z,14.94
2022-09-23T09:47:21.977Z,14.95
2022-09-23T09:49:49.631Z,15.03
2022-09-23T09:52:20.615Z,15.07
2022-09-23T09:54:49.396Z,15.12
2022-09-23T09:57:33.588Z,15.21
2022-09-23T10:00:27.836Z,15.32
2022-09-23T10:03:01.163Z,15.30
2022-09-23T10:05:28.478Z,15.50
2022-09-23T10:07:55.014Z,15.66
2022-09-23T10:10:33.787Z,15.76
2022-09-23T10:13:14.030Z,15.81
2022-09-23T10:15:44.706Z,15.88
2022-09-23T10:18:42.379Z,15.87
2022-09-23T10:21:15.296Z,15.87
2022-09-23T10:23:45.641Z,16.06
2022-09-23T10:26:12.590Z,16.08
2022-09-23T10:28:44.660Z,16.17
2022-09-23T10:31:25.677Z,16.51
2022-09-23T10:33:59.577Z,16.69
2022-09-23T10:36:27.282Z,16.79
2022-09-23T10:39:21.535Z,16.94
2022-09-23T10:42:15.242Z,17.11
2022-09-23T10:45:20.672Z,17.30
2022-09-23T10:48:02.238Z,17.42
2022-09-23T10:50:41.973Z,17.37
2022-09-23T10:53:42.086Z,17.43
2022-09-23T10:56:30.418Z,17.61
2022-09-23T10:59:02.891Z,17.86
2022-09-23T11:01:41.713Z,18.16
2022-09-23T11:04:14.560Z,18.22
2022-09-23T11:07:03.048Z,18.51
2022-09-23T11:09:51.308Z,18.83
2022-09-23T11:12:39.909Z,19.05
2022-09-23T11:15:07.537Z,19.29
2022-09-23T11:18:02.746Z,19.74
2022-09-23T11:21:10.525Z,19.69
2022-09-23T11:23:40.863Z,20.01
2022-09-23T11:26:30.583Z,20.50
2022-09-23T11:29:37.086Z,20.79
2022-09-23T11:32:06.500Z,20.83
2022-09-23T11:34:43.911Z,20.65
2022-09-23T11:37:14.489Z,20.67
2022-09-23T11:39:55.054Z,20.62
2022-09-23T11:42:24.887Z,20.65
2022-09-23T11:45:13.456Z,20.81
2022-09-23T11:48:04.270Z,20.71
2022-09-23T11:50:38.227Z,20.79
2022-09-23T11:53:09.018Z,20.84
2022-09-23T11:55:50.486Z,20.65
2022-09-23T11:58:30.944Z,20.24
2022-09-23T12:01:01.292Z,20.22
2022-09-23T12:04:00.017Z,20.15
2022-09-23T12:06:46.336Z,20.01
2022-09-23T12:09:16.885Z,19.90
2022-09-23T12:11:52.095Z,19.85
2022-09-23T12:14:24.807Z,19.81
2022-09-23T12:17:28.747Z,20.02
2022-09-23T12:20:01.254Z,20.31
2022-09-23T12:22:46.097Z,20.24
2022-09-23T12:25:57.907Z,20.49
2022-09-23T12:28:27.183Z,20.64
2022-09-23T12:30:54.628Z,20.77
2022-09-23T12:33:26.351Z,20.98
2022-09-23T12:36:01.623Z,20.98
2022-09-23T12:38:58.275Z,21.00
2022-09-23T12:41:37.430Z,20.95
2022-09-23T12:44:13.856Z,20.84
2022-09-23T12:46:44.234Z,20.60
2022-09-23T12:49:37.190Z,20.52
2022-09-23T12:52:12.613Z,20.62
2022-09-23T12:54:39.737Z,20.83
2022-09-23T12:57:13.207Z,20.60
2022-09-23T12:59:52.568Z,20.97
2022-09-23T13:02:26.775Z,20.84
2022-09-23T13:05:19.994Z,20.86
2022-09-23T13:07:47.672Z,20.77
2022-09-23T13:10:28.644Z,20.69
2022-09-23T13:12:55.809Z,20.46
2022-09-23T13:15:33.038Z,20.50
2022-09-23T13:18:21.158Z,20.44
2022-09-23T13:20:48.732Z,20.52
2022-09-23T13:23:24.185Z,20.42
2022-09-23T13:25:51.999Z,20.41
2022-09-23T13:28:27.186Z,20.42
2022-09-23T13:30:53.662Z,20.33
2022-09-23T13:33:42.501Z,20.22
2022-09-23T13:36:14.032Z,20.17
2022-09-23T13:38:40.753Z,20.15
2022-09-23T13:41:15.308Z,20.11
2022-09-23T13:43:42.572Z,19.92
2022-09-23T13:46:38.224Z,19.79
2022-09-23T13:49:04.615Z,19.60
2022-09-23T13:51:33.514Z,19.58
2022-09-23T13:54:01.082Z,19.47
2022-09-23T13:56:29.478Z,19.34
2022-09-23T13:59:24.607Z,19.30
2022-09-23T14:01:51.113Z,19.35
2022-09-23T14:04:24.980Z,19.41
2022-09-23T14:06:52.318Z,19.39
2022-09-23T14:09:18.759Z,19.46
2022-09-23T14:11:45.162Z,19.40
2022-09-23T14:14:12.358Z,19.38
2022-09-23T14:16:39.569Z,19.45
2022-09-23T14:19:07.991Z,19.37
2022-09-23T14:21:38.435Z,19.41
2022-09-23T14:24:14.881Z,19.33
2022-09-23T14:27:08.535Z,19.27
2022-09-23T14:29:39.425Z,19.11
2022-09-23T14:32:13.832Z,19.04
2022-09-23T14:35:05.308Z,19.03
2022-09-23T14:37:50.023Z,19.14
2022-09-23T14:40:24.862Z,19.20
2022-09-23T14:43:17.362Z,19.19
2022-09-23T14:45:45.566Z,19.33
2022-09-23T14:48:17.553Z,19.36
2022-09-23T14:50:48.839Z,19.40
2022-09-23T14:53:24.243Z,19.57
2022-09-23T14:55:57.359Z,19.80
2022-09-23T14:58:26.875Z,19.84
2022-09-23T15:01:00.933Z,19.78
2022-09-23T15:03:31.744Z,19.87
2022-09-23T15:06:08.614Z,19.91
2022-09-23T15:08:35.463Z,19.85
2022-09-23T15:11:08.145Z,19.84
2022-09-23T15:13:38.178Z,19.97
2022-09-23T15:16:05.567Z,19.88
2022-09-23T15:18:36.562Z,19.54
2022-09-23T15:21:14.519Z,19.37
2022-09-23T15:23:41.411Z,19.24
2022-09-23T15:26:18.723Z,19.15
2022-09-23T15:28:45.371Z,19.11
2022-09-23T15:31:18.556Z,19.00
2022-09-23T15:33:46.339Z,18.87
2022-09-23T15:36:17.477Z,18.67
2022-09-23T15:38:43.904Z,18.46
2022-09-23T15:41:10.308Z,18.38
2022-09-23T15:43:37.663Z,18.40
2022-09-23T15:46:08.440Z,18.43
2022-09-23T15:48:40.607Z,18.33
2022-09-23T15:51:08.079Z,18.06
2022-09-23T15:53:34.516Z,17.90
2022-09-23T15:56:01.135Z,17.77
2022-09-23T15:58:27.642Z,17.74
2022-09-23T16:00:56.748Z,17.58
2022-09-23T16:03:28.253Z,17.44
2022-09-23T16:05:58.064Z,17.35
2022-09-23T16:08:25.743Z,17.23
2022-09-23T16:10:52.489Z,17.17
2022-09-23T16:13:19.041Z,17.15
2022-09-23T16:15:45.489Z,17.02
2022-09-23T16:18:12.004Z,16.91
2022-09-23T16:20:39.872Z,16.84
2022-09-23T16:23:39.666Z,16.70
2022-09-23T16:26:18.499Z,16.59
2022-09-23T16:28:45.596Z,16.47
2022-09-23T16:31:12.107Z,16.47
2022-09-23T16:33:38.689Z,16.45
2022-09-23T16:36:05.809Z,16.34
2022-09-23T16:38:32.543Z,16.22
2022-09-23T16:41:00.351Z,16.10
2022-09-23T16:43:32.621Z,16.05
2022-09-23T16:45:59.125Z,15.98
2022-09-23T16:48:25.665Z,15.96
2022-09-23T16:50:53.939Z,15.91
2022-09-23T16:53:20.468Z,15.81
2022-09-23T16:55:46.870Z,15.73
2022-09-23T16:58:13.237Z,15.66
2022-09-23T17:00:58.344Z,15.61
2022-09-23T17:03:40.871Z,15.52
2022-09-23T17:06:10.338Z,15.47
2022-09-23T17:08:36.693Z,15.39
2022-09-23T17:11:03.446Z,15.33
2022-09-23T17:13:29.901Z,15.26
2022-09-23T17:15:56.462Z,15.18
2022-09-23T17:18:22.981Z,15.12
2022-09-23T17:21:03.851Z,15.07
2022-09-23T17:23:31.726Z,15.00
2022-09-23T17:25:59.304Z,14.97
2022-09-23T17:28:25.716Z,14.93
2022-09-23T17:30:57.666Z,14.88
2022-09-23T17:33:24.997Z,14.82
2022-09-23T17:35:51.956Z,14.76
2022-09-23T17:38:18.416Z,14.68
2022-09-23T17:40:54.793Z,14.64
2022-09-23T17:43:25.273Z,14.57
2022-09-23T17:45:52.439Z,14.51
2022-09-23T17:48:20.128Z,14.46
2022-09-23T17:51:19.782Z,14.39
2022-09-23T17:53:46.673Z,14.33
2022-09-23T17:56:24.892Z,14.25
2022-09-23T17:58:51.541Z,14.23
2022-09-23T18:01:19.986Z,14.23
2022-09-23T18:03:47.280Z,14.20
2022-09-23T18:06:18.762Z,14.19
2022-09-23T18:08:46.475Z,14.19
2022-09-23T18:11:19.503Z,14.23
2022-09-23T18:13:55.482Z,14.23
2022-09-23T18:16:23.628Z,14.23
2022-09-23T18:18:51.686Z,14.20
2022-09-23T18:21:19.060Z,14.17
2022-09-23T18:23:46.207Z,14.11
2022-09-23T18:26:17.111Z,14.05
2022-09-23T18:28:43.593Z,14.01
2022-09-23T18:31:10.326Z,13.96
2022-09-23T18:33:36.974Z,13.92
2022-09-23T18:36:04.677Z,13.91
2022-09-23T18:38:31.235Z,13.87
2022-09-23T18:40:58.053Z,13.84
2022-09-23T18:43:37.247Z,13.82
2022-09-23T18:46:09.596Z,13.80
2022-09-23T18:48:54.738Z,13.78
2022-09-23T18:51:22.234Z,13.76
2022-09-23T18:53:50.147Z,13.75
2022-09-23T18:56:17.868Z,13.74
2022-09-23T18:58:47.935Z,13.70
2022-09-23T19:01:14.519Z,13.67
2022-09-23T19:03:41.159Z,13.66
2022-09-23T19:06:11.941Z,13.65
2022-09-23T19:08:38.401Z,13.64
2022-09-23T19:11:05.918Z,13.62
2022-09-23T19:13:32.841Z,13.61
2022-09-23T19:16:03.784Z,13.61
2022-09-23T19:18:31.037Z,13.60
2022-09-23T19:21:04.827Z,13.58
2022-09-23T19:23:34.820Z,13.56
2022-09-23T19:26:05.834Z,13.54
2022-09-23T19:28:32.339Z,13.54
2022-09-23T19:30:58.994Z,13.53
2022-09-23T19:33:25.474Z,13.49
2022-09-23T19:35:53.464Z,13.47
2022-09-23T19:38:21.358Z,13.45
2022-09-23T19:40:50.040Z,13.43
2022-09-23T19:43:17.758Z,13.40
2022-09-23T19:45:44.561Z,13.40
2022-09-23T19:48:10.956Z,13.39
2022-09-23T19:50:38.656Z,13.39
2022-09-23T19:53:06.087Z,13.38
2022-09-23T19:55:34.791Z,13.35
2022-09-23T19:58:01.365Z,13.32
2022-09-23T20:00:27.934Z,13.30
2022-09-23T20:02:54.851Z,13.28
2022-09-23T20:05:21.469Z,13.24
2022-09-23T20:07:47.903Z,13.21
2022-09-23T20:10:14.416Z,13.20
2022-09-23T20:12:42.276Z,13.21
2022-09-23T20:15:10.796Z,13.18
2022-09-23T20:17:38.393Z,13.17
2022-09-23T20:20:05.041Z,13.17
2022-09-23T20:22:33.694Z,13.17
2022-09-23T20:25:00.699Z,13.17
2022-09-23T20:27:28.954Z,13.16
2022-09-23T20:29:56.986Z,13.14
2022-09-23T20:32:24.485Z,13.15
2022-09-23T20:34:51.860Z,13.16
2022-09-23T20:37:18.802Z,13.14
2022-09-23T20:39:45.637Z,13.12
2022-09-23T20:42:13.569Z,13.12
2022-09-23T20:44:40.605Z,13.10
2022-09-23T20:47:07.323Z,13.09
2022-09-23T20:49:34.362Z,13.10
2022-09-23T20:52:03.947Z,13.09
2022-09-23T20:54:31.370Z,13.07
2022-09-23T20:56:58.260Z,13.05
2022-09-23T20:59:27.339Z,13.03
2022-09-23T21:01:57.115Z,13.01
2022-09-23T21:04:24.356Z,13.01
2022-09-23T21:06:54.155Z,13.00
2022-09-23T21:09:20.637Z,13.00
2022-09-23T21:11:47.027Z,12.97
2022-09-23T21:14:13.421Z,12.97
2022-09-23T21:16:39.959Z,12.96
2022-09-23T21:19:09.320Z,12.96
2022-09-23T21:21:35.783Z,12.96
2022-09-23T21:24:24.467Z,12.95
2022-09-23T21:26:50.426Z,12.95
2022-09-23T21:29:17.111Z,12.95
2022-09-23T21:31:43.578Z,12.96
2022-09-23T21:34:14.524Z,12.96
2022-09-23T21:36:42.808Z,12.95
2022-09-23T21:39:10.460Z,12.93
2022-09-23T21:41:37.237Z,12.92
2022-09-23T21:44:07.846Z,12.92
2022-09-23T21:46:35.085Z,12.91
2022-09-23T21:49:03.919Z,12.90
2022-09-23T21:51:40.498Z,12.89
2022-09-23T21:54:11.595Z,12.88
2022-09-23T21:56:38.063Z,12.85
2022-09-23T21:59:05.147Z,12.86
2022-09-23T22:01:34.890Z,12.85
2022-09-23T22:04:05.204Z,12.81
2022-09-23T22:06:31.817Z,12.81
2022-09-23T22:09:02.434Z,12.83
2022-09-23T22:11:51.634Z,12.83
2022-09-23T22:14:18.922Z,12.81
2022-09-23T22:16:45.438Z,12.81
2022-09-23T22:19:12.550Z,12.81
2022-09-23T22:21:39.930Z,12.80
2022-09-23T22:24:07.619Z,12.80
2022-09-23T22:26:34.980Z,12.79
2022-09-23T22:29:20.130Z,12.76
2022-09-23T22:32:05.311Z,12.75
2022-09-23T22:34:49.237Z,12.77
2022-09-23T22:37:18.653Z,12.77
2022-09-23T22:39:45.326Z,12.77
2022-09-23T22:42:13.021Z,12.77
2022-09-23T22:44:39.420Z,12.77
2022-09-23T22:47:05.935Z,12.77
2022-09-23T22:49:32.385Z,12.77
2022-09-23T22:51:59.379Z,12.78
2022-09-23T22:54:33.375Z,12.77
2022-09-23T22:57:03.175Z,12.78
2022-09-23T22:59:29.724Z,12.79
2022-09-23T23:01:57.160Z,12.79
2022-09-23T23:04:23.761Z,12.79
2022-09-23T23:06:50.171Z,12.78
2022-09-23T23:09:17.440Z,12.78
2022-09-23T23:11:44.485Z,12.77
2022-09-23T23:14:11.803Z,12.76
2022-09-23T23:16:38.642Z,12.76
2022-09-23T23:19:06.622Z,12.74
2022-09-23T23:21:33.578Z,12.74
2022-09-23T23:24:00.108Z,12.72
2022-09-23T23:26:27.944Z,12.72
2022-09-23T23:28:54.697Z,12.72
2022-09-23T23:31:23.554Z,12.70
2022-09-23T23:33:50.118Z,12.69
2022-09-23T23:36:18.135Z,12.70
2022-09-23T23:38:45.766Z,12.70
2022-09-23T23:41:16.864Z,12.70
2022-09-23T23:43:45.979Z,12.70
2022-09-23T23:46:13.121Z,12.70
2022-09-23T23:48:39.906Z,12.70
2022-09-23T23:51:07.569Z,12.70
2022-09-23T23:53:35.973Z,12.69
2022-09-23T23:56:03.679Z,12.67
2022-09-23T23:58:30.109Z,12.68
